Thousand Palms, CA (92276)

1:16 PM PDT on August 01, 2015 (GMT -0700)
DesertWeather com | | Change Station
CLOSE
Current Station
Personal Weather Station
Location: Thousand Palms, CA
Elevation: 275 ft
Nearby Weather Stations

Elev 275 ft 33.82 °N, 116.40 °W | Updated 3 seconds ago

Clear
Clear
105.3 °F
Feels Like 102 °F
N
2.9
Wind Variable Wind from ESE
Gusts 8.1 mph

Today
High -- | Low -- °F
--% Chance of Precip.
Yesterday
High -- | Low -- °F
Precip. -- in
5:57 AM 7:46 PM
Full, 97% visible
Pressure 29.83 in
Visibility 10.0 miles
Clouds Scattered Clouds 18000 ft
Heat Index 102 °F
Dew Point 50 °F
Humidity 16%
Rainfall 0.00 in
Snow Depth Not available.
UV 10 out of 12
Pollen 4.40 out of 12
Air Quality Not available.
Flu Activity Not available.
METAR KPSP 011953Z 07005KT 10SM SCT180 42/08 A2985 RMK AO2 SLP100 T04170078

More Conditions Fewer Conditions

Pressure 29.83 in
Visibility 10.0 miles
Clouds Scattered Clouds 18000 ft
Heat Index 102 °F
Dew Point 50 °F
Humidity 16%
Rainfall 0.00 in
Snow Depth Not available.
UV 10 out of 12
Pollen 4.40 out of 12
Air Quality Not available.
Flu Activity Not available.
METAR KPSP 011953Z 07005KT 10SM SCT180 42/08 A2985 RMK AO2 SLP100 T04170078

More Conditions Fewer Conditions

10-Day Weather Forecast

×

Almanac

Astronomy

Aug. 01, 2015 Rise Set
Actual Time
Civil Twilight
Nautical Twilight
Astronomical Twilight
Moon
Length of Visible Light
Length of Day
Tomorrow will be .
, % of the Moon is Illuminated

Today's Extremes

State Highs State Lows

Community

WunderPhotos

Upload Photos

1,843,048 photos uploaded!

WunderBlogs® & News

Nearby

Air Quality

  Air Quality AQ Index Pollutant
Not available.

Snow Depth

Station Depth Elevation

Earthquake Activity

City Distance Mag. Time & Date
Minimum magnitude displayed is 2.5.

Coastal Water Temperatures

Place Temperature

Stations

Nearby Weather Stations

Station Location Temp. Windchill Dew Point Humidity Wind Precip. Elev Updated Type